createdAt,value
2023-05-19T00:06:02.495Z,18.3
2023-05-19T00:16:11.221Z,18.2
2023-05-19T00:26:20.074Z,18.2
2023-05-19T00:36:28.776Z,18.2
2023-05-19T00:46:37.575Z,18.1
2023-05-19T00:56:46.341Z,18
2023-05-19T01:06:55.154Z,18
2023-05-19T01:16:55.426Z,17.9
2023-05-19T01:27:04.187Z,17.8
2023-05-19T01:37:13.000Z,17.9
2023-05-19T01:47:21.643Z,18
2023-05-19T01:57:30.369Z,18
2023-05-19T02:07:39.213Z,17.9
2023-05-19T02:17:48.062Z,17.8
2023-05-19T02:27:56.697Z,17.5
2023-05-19T02:38:05.437Z,17.4
2023-05-19T02:48:14.303Z,17.2
2023-05-19T02:58:22.957Z,17.2
2023-05-19T03:08:31.582Z,17.1
2023-05-19T03:18:39.831Z,17.2
2023-05-19T03:28:48.520Z,17.3
2023-05-19T03:38:57.185Z,17.3
2023-05-19T03:49:05.938Z,17.1
2023-05-19T03:59:14.668Z,17.1
2023-05-19T04:09:23.477Z,16.9
2023-05-19T04:19:32.657Z,16.9
2023-05-19T04:29:41.546Z,16.9
2023-05-19T04:39:50.421Z,16.7
2023-05-19T04:49:59.245Z,16.5
2023-05-19T05:00:08.124Z,16.4
2023-05-19T05:10:17.067Z,16.3
2023-05-19T05:20:25.948Z,16.4
2023-05-19T05:30:34.724Z,16.4
2023-05-19T05:40:43.446Z,16.4
2023-05-19T05:50:52.364Z,16.2
2023-05-19T06:01:01.170Z,16.5
2023-05-19T06:11:01.884Z,16.6
2023-05-19T06:21:02.767Z,16.9
2023-05-19T06:31:11.676Z,17.2
2023-05-19T06:41:20.672Z,17.5
2023-05-19T06:51:29.580Z,17.5
2023-05-19T07:01:38.423Z,17.8
2023-05-19T07:11:47.350Z,17.6
2023-05-19T07:21:56.052Z,17.7
2023-05-19T07:32:04.920Z,17.8
2023-05-19T07:42:13.736Z,18.8
2023-05-19T07:52:22.525Z,20.5
2023-05-19T08:02:31.354Z,21.4
2023-05-19T08:12:39.968Z,21.9
2023-05-19T08:22:48.823Z,21.3
2023-05-19T08:32:57.758Z,22
2023-05-19T08:43:06.449Z,23.3
2023-05-19T08:53:24.904Z,23.6
2023-05-19T09:03:23.645Z,24
2023-05-19T09:13:30.405Z,22.9
2023-05-19T09:23:41.091Z,23.1
2023-05-19T09:33:40.691Z,22.2
2023-05-19T09:43:47.986Z,22.1
2023-05-19T09:53:56.892Z,22.8
2023-05-19T10:04:06.134Z,22.6
2023-05-19T10:14:14.070Z,23.1
2023-05-19T10:24:22.881Z,23.3
2023-05-19T10:34:31.576Z,22.8
2023-05-19T10:44:40.597Z,23
2023-05-19T10:54:50.361Z,22.5
2023-05-19T11:04:51.582Z,22.6
2023-05-19T11:14:57.764Z,22.3
2023-05-19T11:25:06.484Z,21.7
2023-05-19T11:35:15.357Z,21.8
2023-05-19T11:45:24.226Z,21.4
2023-05-19T11:55:33.079Z,21
2023-05-19T12:05:43.622Z,21.2
2023-05-19T12:15:49.893Z,20.6
2023-05-19T12:25:58.649Z,19.4
2023-05-19T12:36:07.532Z,19.7
2023-05-19T12:46:16.350Z,20
2023-05-19T12:56:25.147Z,20.1
2023-05-19T13:06:33.816Z,19.8
2023-05-19T13:16:42.739Z,19.7
2023-05-19T13:26:42.782Z,19.5
2023-05-19T13:36:50.793Z,19.6
2023-05-19T13:46:59.776Z,20.4
2023-05-19T13:57:08.693Z,20.7
2023-05-19T14:07:18.610Z,21
2023-05-19T14:17:27.521Z,21.7
2023-05-19T14:27:36.341Z,21.8
2023-05-19T14:37:36.879Z,21.8
2023-05-19T14:47:39.498Z,21.9
2023-05-19T14:57:42.509Z,21.5
2023-05-19T15:07:43.061Z,21.1
2023-05-19T15:17:52.073Z,21.2
2023-05-19T15:28:00.921Z,21.1
2023-05-19T15:38:10.011Z,21.1
2023-05-19T15:48:18.819Z,21
2023-05-19T15:58:27.579Z,21.1
2023-05-19T16:08:36.360Z,21.2
2023-05-19T16:18:45.264Z,21.1
2023-05-19T16:28:54.050Z,21.2
2023-05-19T16:39:02.875Z,21.1
2023-05-19T16:49:11.742Z,20.8
2023-05-19T16:59:20.578Z,19.6
2023-05-19T17:09:29.333Z,18.7
2023-05-19T17:19:38.000Z,18.7
2023-05-19T17:29:46.725Z,19.1
2023-05-19T17:39:55.565Z,19.1
2023-05-19T17:50:04.415Z,19.3
2023-05-19T18:00:05.082Z,19.1
2023-05-19T18:10:13.867Z,19.1
2023-05-19T18:20:22.756Z,18.9
2023-05-19T18:30:31.747Z,19.1
2023-05-19T18:40:40.706Z,19.1
2023-05-19T18:50:50.020Z,19
2023-05-19T19:00:58.858Z,18.7
2023-05-19T19:11:07.729Z,18.6
2023-05-19T19:21:16.542Z,18.5
2023-05-19T19:31:25.338Z,18.3
2023-05-19T19:41:34.064Z,18.4
2023-05-19T19:51:42.755Z,18.3
2023-05-19T20:01:51.527Z,18.2
2023-05-19T20:12:00.311Z,18.1
2023-05-19T20:22:09.196Z,18.1
2023-05-19T20:32:17.960Z,18
2023-05-19T20:42:26.719Z,18
2023-05-19T20:52:35.451Z,17.7
2023-05-19T21:02:44.223Z,17.5
2023-05-19T21:12:52.908Z,17.3
2023-05-19T21:23:01.682Z,17.1
2023-05-19T21:33:10.485Z,17
2023-05-19T21:43:19.187Z,16.8
2023-05-19T21:53:27.933Z,17
2023-05-19T22:03:36.985Z,17.1
2023-05-19T22:13:45.714Z,17.1
2023-05-19T22:23:54.730Z,17
2023-05-19T22:34:03.606Z,16.8
2023-05-19T22:44:12.431Z,16.8
2023-05-19T22:54:25.935Z,16.7
2023-05-19T23:04:24.741Z,16.8
2023-05-19T23:14:33.568Z,16.8
2023-05-19T23:24:42.418Z,16.6
2023-05-19T23:34:51.107Z,16.5
2023-05-19T23:44:59.819Z,16.3
2023-05-19T23:55:08.677Z,16.2
